This is the latest recevied weather packets stored in our database for station/object HS5NMF. If no packets are shown the sender has not sent any weather packets the latest 10 day(s).
| Time | Temp. | Humidity | Pressure | Rain* | Wind** | Luminosity | Snow |
|---|---|---|---|---|---|---|---|
| 1777893127 | 30.56° C | 72% | 976 hPa | - | - | 0 W/m² | - |
| 1777892804 | 30.56° C | 72% | 976 hPa | - | - | 0 W/m² | - |
| 1777892554 | 30.56° C | 71% | 976 hPa | - | - | 0 W/m² | - |
| 1777892481 | 30.56° C | 71% | 976 hPa | - | - | 0 W/m² | - |
| 1777892361 | 30.56° C | 72% | 976 hPa | - | - | 0 W/m² | - |
| 1777892157 | 30.56° C | 72% | 976 hPa | - | - | 0 W/m² | - |
| 1777891833 | 30.56° C | 73% | 976 hPa | - | - | 0 W/m² | - |
| 1777891520 | 30.56° C | 74% | 976 hPa | - | - | 0 W/m² | - |
| 1777891510 | 30.56° C | 74% | 976 hPa | - | - | 0 W/m² | - |
| 1777891190 | 30.56° C | 74% | 976 hPa | - | - | 0 W/m² | - |
| 1777890864 | 30° C | 76% | 975 hPa | - | - | 0 W/m² | - |
| 1777890541 | 30° C | 75% | 975 hPa | - | - | 0 W/m² | - |
| 1777890218 | 30° C | 77% | 976 hPa | - | - | 0 W/m² | - |
| 1777889895 | 31.11° C | 76% | 976 hPa | - | - | 0 W/m² | - |
| 1777889572 | 30° C | 80% | 976 hPa | - | - | 0 W/m² | - |
| 1777889565 | 30° C | 79% | 976 hPa | - | - | 0 W/m² | - |
| 1777889251 | 30° C | 79% | 976 hPa | - | - | 0 W/m² | - |
| 1777888929 | 30° C | 81% | 976 hPa | - | - | 0 W/m² | - |
| 1777888604 | 30° C | 80% | 976 hPa | - | - | 0 W/m² | - |
| 1777888282 | 30.56° C | 78% | 976 hPa | - | - | 0 W/m² | - |
| 1777887959 | 30.56° C | 78% | 975 hPa | - | - | 0 W/m² | - |
| 1777887634 | 30.56° C | 76% | 975 hPa | - | - | 0 W/m² | - |
| 1777887313 | 30.56° C | 75% | 975 hPa | - | - | 0 W/m² | - |
| 1777886989 | 30.56° C | 73% | 975 hPa | - | - | 0 W/m² | - |
| 1777886665 | 31.11° C | 69% | 975 hPa | - | - | 0 W/m² | - |
* Rain since midnight (hover to see other rain measurements)
** Current wind speed in m/s (hover to see current wind gust speed)